Time;durP1;ratioP1;P1;durP2;ratioP2;P2;SDS_P1;SDS_P2;PMS_P1;PMS_P2;Temp;Humidity;BMP_temperature;BMP_pressure;BME280_temperature;BME280_humidity;BME280_pressure;Samples;Min_cycle;Max_cycle;Signal;HPM_P1;HPM_P2
2023/02/13 00:03:37;;;;;;;31.63;22.47;;;;;;;7.04;58.37;99947.94;8408523;28;20578;-67
2023/02/13 00:07:40;;;;;;;29.33;21.57;;;;;;;6.86;58.19;99932.44;8408591;28;20260;-68
2023/02/13 00:11:42;;;;;;;25.80;19.40;;;;;;;7.03;58.50;99943.63;8413472;28;20296;-67
2023/02/13 00:15:55;;;;;;;22.97;18.40;;;;;;;6.95;58.61;99939.28;8414615;28;20232;-67
2023/02/13 00:19:58;;;;;;;27.50;20.70;;;;;;;6.89;58.90;99945.28;8414047;28;20256;-67
2023/02/13 00:24:01;;;;;;;23.40;18.30;;;;;;;6.88;59.00;99933.28;8414458;28;20236;-67
2023/02/13 00:28:03;;;;;;;19.83;16.83;;;;;;;6.71;58.33;99915.22;8412490;28;20232;-67
2023/02/13 00:32:08;;;;;;;20.40;16.33;;;;;;;6.68;58.43;99934.94;8413916;28;20232;-67
2023/02/13 00:36:12;;;;;;;19.07;15.57;;;;;;;6.65;57.92;99934.09;8413690;28;20247;-67
2023/02/13 00:40:15;;;;;;;17.67;15.17;;;;;;;6.71;57.98;99929.81;8413754;28;20238;-67
2023/02/13 00:44:18;;;;;;;18.43;15.73;;;;;;;6.63;58.29;99925.50;8413293;28;20239;-67
2023/02/13 00:48:23;;;;;;;24.10;19.23;;;;;;;6.64;57.88;99918.63;8413709;28;20220;-68
2023/02/13 00:52:25;;;;;;;29.87;21.87;;;;;;;6.52;58.21;99926.34;8413499;28;20224;-67
2023/02/13 00:56:28;;;;;;;41.67;20.90;;;;;;;6.30;58.13;99922.81;8413111;28;20335;-67
2023/02/13 01:00:31;;;;;;;26.67;19.43;;;;;;;6.35;58.10;99921.13;8412985;28;20232;-67
2023/02/13 01:04:36;;;;;;;26.47;18.90;;;;;;;6.24;58.11;99927.09;8414365;28;20231;-67
2023/02/13 01:08:40;;;;;;;24.73;18.40;;;;;;;6.19;58.45;99926.19;8414343;28;20236;-67
2023/02/13 01:12:43;;;;;;;24.37;18.33;;;;;;;6.20;58.44;99925.31;8413623;28;20235;-67
2023/02/13 01:16:45;;;;;;;25.57;19.63;;;;;;;6.08;59.24;99930.44;8414018;28;20244;-67
2023/02/13 01:20:58;;;;;;;24.23;18.27;;;;;;;6.20;59.29;99929.63;8414002;28;20235;-67
2023/02/13 01:25:01;;;;;;;23.53;18.50;;;;;;;6.29;59.04;99926.25;8413523;28;20247;-68
2023/02/13 01:29:04;;;;;;;30.53;19.30;;;;;;;6.40;58.80;99925.44;8413524;28;20239;-67
2023/02/13 01:33:07;;;;;;;38.60;20.03;;;;;;;6.29;58.84;99923.66;8413398;28;20224;-67
2023/02/13 01:37:11;;;;;;;27.67;20.20;;;;;;;6.27;58.66;99928.81;8413469;28;20235;-67
2023/02/13 01:41:14;;;;;;;28.00;20.27;;;;;;;6.37;58.17;99933.13;8413288;28;20224;-67
2023/02/13 01:45:23;;;;;;;33.93;21.30;;;;;;;6.22;58.98;99933.06;8412920;28;20232;-67
2023/02/13 01:49:26;;;;;;;41.60;22.07;;;;;;;6.14;59.30;99911.59;8412723;28;20435;-67
2023/02/13 01:53:32;;;;;;;49.60;22.93;;;;;;;6.25;59.43;99926.22;8412998;28;20228;-68
2023/02/13 01:57:35;;;;;;;59.10;24.07;;;;;;;6.19;60.78;99925.34;8412669;28;20231;-67
2023/02/13 02:01:38;;;;;;;57.03;24.83;;;;;;;6.20;60.64;99924.47;8412338;28;20236;-67
2023/02/13 02:05:42;;;;;;;79.00;24.97;;;;;;;6.13;60.44;99933.00;8411914;28;20228;-67
2023/02/13 02:09:46;;;;;;;45.77;22.87;;;;;;;6.12;60.49;99931.31;8412256;28;20342;-67
2023/02/13 02:13:49;;;;;;;61.60;21.60;;;;;;;6.02;60.88;99925.25;8411943;28;20235;-67
2023/02/13 02:17:52;;;;;;;29.33;15.33;;;;;;;6.02;61.19;99920.13;8412058;28;20240;-67
2023/02/13 02:22:34;;;;;;;46.37;15.13;;;;;;;6.14;60.42;99921.88;8411920;28;20228;-67
2023/02/13 02:27:07;;;;;;;44.80;11.23;;;;;;;6.03;61.80;99920.09;8394606;28;20224;-67
2023/02/13 02:31:38;;;;;;;83.17;10.97;;;;;;;6.04;61.92;99918.41;8411116;28;20409;-67
2023/02/13 02:35:46;;;;;;;113.03;12.47;;;;;;;6.09;61.99;99918.41;8411419;28;20227;-67
2023/02/13 02:39:57;;;;;;;154.10;12.27;;;;;;;5.93;62.77;99915.72;8411484;28;20256;-67
2023/02/13 02:44:22;;;;;;;139.50;12.63;;;;;;;5.91;62.99;99919.16;8411334;28;20546;-67
2023/02/13 02:52:59;;;;;;;109.30;10.80;;;;;;;5.94;62.19;99922.63;8444150;28;20231;-67
2023/02/13 02:57:07;;;;;;;61.63;10.03;;;;;;;5.87;62.23;99919.13;8444330;28;20223;-67
2023/02/13 03:14:28;;;;;;;19.77;10.60;;;;;;;5.76;60.69;99925.06;8443883;28;20223;-67
2023/02/13 03:23:15;;;;;;;25.50;10.87;;;;;;;5.74;59.01;99929.34;8303440;28;20511;-67
2023/02/13 03:31:50;;;;;;;22.07;11.00;;;;;;;5.66;58.61;99931.84;8410052;28;20226;-68
2023/02/13 03:40:29;;;;;;;28.63;10.83;;;;;;;5.48;57.91;99932.56;8384718;28;20474;-67
2023/02/13 03:44:34;;;;;;;23.50;11.10;;;;;;;5.32;58.84;99929.03;8413948;28;20223;-67
2023/02/13 03:53:04;;;;;;;35.37;11.37;;;;;;;4.67;59.19;99823.19;8449844;28;20238;-67
2023/02/13 04:01:31;;;;;;;30.67;11.43;;;;;;;5.32;58.85;99941.88;8449880;28;20227;-67
2023/02/13 04:05:39;;;;;;;28.67;11.47;;;;;;;5.42;58.35;99935.09;8449534;28;20225;-67
2023/02/13 04:09:42;;;;;;;24.70;11.53;;;;;;;5.22;58.69;99904.13;8415753;28;20215;-67
2023/02/13 04:13:49;;;;;;;26.90;10.53;;;;;;;5.37;58.79;99935.06;8415637;28;20239;-67
2023/02/13 04:17:54;;;;;;;28.60;11.30;;;;;;;5.44;58.54;99936.81;8415744;28;20519;-67
2023/02/13 04:21:58;;;;;;;42.97;10.97;;;;;;;5.35;58.86;99941.03;8415883;28;20231;-67
2023/02/13 04:26:03;;;;;;;66.07;11.17;;;;;;;5.35;59.48;99946.16;8415356;28;20233;-67
2023/02/13 04:30:09;;;;;;;38.67;10.67;;;;;;;5.36;59.81;99941.03;8415332;28;20239;-67
2023/02/13 04:34:11;;;;;;;45.70;10.80;;;;;;;5.37;59.82;99936.75;8415334;28;20236;-66
2023/02/13 04:38:14;;;;;;;30.57;10.00;;;;;;;5.41;59.33;99931.66;8415278;28;20533;-67
2023/02/13 04:42:17;;;;;;;73.20;10.37;;;;;;;5.32;59.51;99930.75;8415060;28;20238;-67
2023/02/13 04:46:21;;;;;;;50.73;9.50;;;;;;;5.21;59.46;99933.22;8414955;28;20251;-67
2023/02/13 04:50:25;;;;;;;38.83;8.47;;;;;;;5.28;59.99;99932.41;8415021;28;20546;-67
2023/02/13 04:54:28;;;;;;;27.20;9.47;;;;;;;5.37;59.72;99929.03;8414352;28;20220;-67
2023/02/13 04:58:33;;;;;;;33.17;9.03;;;;;;;5.26;59.46;99932.41;8414709;28;20314;-67
2023/02/13 05:02:39;;;;;;;28.30;8.43;;;;;;;5.19;59.43;99922.06;8414181;28;20224;-67
2023/02/13 05:06:42;;;;;;;55.60;8.73;;;;;;;4.90;60.12;99900.41;8413774;28;20228;-67
2023/02/13 05:10:45;;;;;;;41.73;7.97;;;;;;;5.16;60.93;99943.47;8414191;28;20248;-67
2023/02/13 05:14:48;;;;;;;18.33;7.37;;;;;;;5.27;60.91;99925.53;8414150;28;20233;-67
2023/02/13 05:18:53;;;;;;;72.30;8.80;;;;;;;5.46;60.55;99944.53;8413672;28;20228;-67
2023/02/13 05:27:17;;;;;;;36.40;7.37;;;;;;;5.29;61.10;99947.84;8413393;28;20420;-67
2023/02/13 05:31:19;;;;;;;19.77;7.43;;;;;;;5.33;60.89;99961.59;8413563;28;20235;-67
2023/02/13 05:35:24;;;;;;;26.60;7.20;;;;;;;5.38;60.38;99959.91;8413728;28;20492;-68
2023/02/13 05:39:27;;;;;;;28.63;6.90;;;;;;;5.28;60.55;99943.56;8413203;28;20225;-67
2023/02/13 05:43:30;;;;;;;59.50;8.50;;;;;;;4.49;59.80;99830.69;8412948;28;20240;-68
2023/02/13 05:47:33;;;;;;;33.53;7.23;;;;;;;5.07;60.34;99956.19;8412080;28;20232;-67
2023/02/13 05:51:37;;;;;;;40.23;6.37;;;;;;;4.90;59.57;99936.34;8411919;28;20228;-67
2023/02/13 05:55:40;;;;;;;36.40;7.43;;;;;;;5.22;60.01;99963.19;8411828;28;20422;-68
2023/02/13 05:59:43;;;;;;;35.93;7.60;;;;;;;5.31;59.66;99963.25;8411464;28;20236;-67
2023/02/13 06:03:46;;;;;;;46.57;9.03;;;;;;;5.33;59.62;99977.00;8410652;28;20241;-67
2023/02/13 06:07:50;;;;;;;39.60;8.57;;;;;;;5.16;59.35;99956.28;8410509;28;20243;-68
2023/02/13 06:11:53;;;;;;;25.40;8.57;;;;;;;5.27;59.00;99974.34;8410770;28;20235;-69
2023/02/13 06:15:55;;;;;;;38.47;11.10;;;;;;;5.09;59.08;99967.34;8411265;28;20535;-67
2023/02/13 06:19:58;;;;;;;29.70;10.03;;;;;;;5.22;59.20;99976.03;8410947;28;20382;-68
2023/02/13 06:24:03;;;;;;;11.90;5.80;;;;;;;5.26;58.32;99978.66;8410694;28;20239;-67
2023/02/13 06:28:06;;;;;;;28.73;6.60;;;;;;;4.96;59.04;99981.75;8410848;28;20231;-67
2023/02/13 06:32:09;;;;;;;15.73;7.43;;;;;;;4.85;59.65;99994.47;8410774;28;20250;-67
2023/02/13 06:36:11;;;;;;;61.00;7.90;;;;;;;4.87;59.21;99995.38;8410696;28;20228;-67
2023/02/13 06:40:16;;;;;;;36.33;6.00;;;;;;;5.03;58.79;99992.97;8410668;28;20416;-67
2023/02/13 06:44:19;;;;;;;30.20;6.10;;;;;;;4.92;59.11;99998.00;8411083;28;20239;-67
2023/02/13 06:48:24;;;;;;;13.03;6.70;;;;;;;4.73;59.41;99983.22;8410578;28;20476;-68
2023/02/13 06:52:29;;;;;;;11.73;6.67;;;;;;;5.08;59.00;100011.84;8410408;28;20516;-67
2023/02/13 06:56:33;;;;;;;6.10;5.23;;;;;;;4.93;59.04;100016.81;8410229;28;20458;-66
2023/02/13 07:00:38;;;;;;;17.20;5.10;;;;;;;5.02;58.15;100009.22;8409756;28;20235;-66
2023/02/13 07:04:41;;;;;;;17.40;5.00;;;;;;;4.78;58.41;100015.81;8409794;28;20232;-67
2023/02/13 07:08:44;;;;;;;10.43;5.27;;;;;;;5.03;57.72;100022.09;8409434;28;20267;-67
2023/02/13 07:12:49;;;;;;;7.13;5.47;;;;;;;4.89;58.62;100024.50;8409526;28;20458;-67
2023/02/13 07:17:06;;;;;;;12.10;5.50;;;;;;;4.98;58.39;100028.88;8410935;28;20224;-67
2023/02/13 07:21:09;;;;;;;46.23;7.07;;;;;;;4.49;57.84;100024.00;8416232;28;20414;-68
2023/02/13 07:25:12;;;;;;;13.17;6.30;;;;;;;4.71;59.26;100026.84;8416332;28;20243;-68
2023/02/13 07:29:16;;;;;;;11.67;5.13;;;;;;;4.83;58.54;100018.41;8416016;28;20232;-67
2023/02/13 07:33:19;;;;;;;11.43;5.77;;;;;;;5.19;58.57;100033.38;8416202;28;20235;-66
2023/02/13 07:37:22;;;;;;;11.90;6.03;;;;;;;5.34;58.35;100035.25;8416241;28;20535;-66
2023/02/13 07:41:25;;;;;;;17.77;6.03;;;;;;;5.33;58.49;100037.78;8415519;28;20224;-66
2023/02/13 07:45:30;;;;;;;12.43;5.60;;;;;;;5.29;58.89;100021.47;8415975;28;20224;-66
2023/02/13 07:49:33;;;;;;;29.30;6.40;;;;;;;5.44;58.28;100036.19;8415307;28;20228;-65
2023/02/13 07:53:36;;;;;;;12.60;6.10;;;;;;;5.38;58.73;100026.72;8415612;28;20220;-66
2023/02/13 07:57:38;;;;;;;17.07;6.33;;;;;;;5.63;58.60;100034.66;8415429;28;20225;-66
2023/02/13 08:01:42;;;;;;;18.27;6.13;;;;;;;5.66;57.08;100035.53;8414533;28;20412;-66
2023/02/13 08:05:47;;;;;;;10.80;6.90;;;;;;;5.52;57.55;100021.72;8414869;28;20249;-67
2023/02/13 08:14:11;;;;;;;14.63;7.67;;;;;;;5.42;57.81;100025.03;8414939;28;20224;-66
2023/02/13 08:18:15;;;;;;;33.23;7.40;;;;;;;5.09;56.72;100026.41;8414534;28;20396;-66
2023/02/13 08:22:21;;;;;;;10.47;7.73;;;;;;;5.38;58.24;100034.41;8414681;28;20247;-67
2023/02/13 08:26:24;;;;;;;14.00;8.00;;;;;;;5.37;57.20;100035.28;8414218;28;20232;-67
2023/02/13 08:30:27;;;;;;;15.37;8.67;;;;;;;5.25;58.47;100015.47;8413625;28;20294;-67
2023/02/13 08:34:31;;;;;;;15.70;9.33;;;;;;;5.63;57.39;100037.22;8414249;28;20239;-67
2023/02/13 08:38:34;;;;;;;23.27;10.17;;;;;;;5.72;57.47;100033.88;8414169;28;20265;-67
2023/02/13 08:42:38;;;;;;;21.37;9.80;;;;;;;5.60;57.31;100022.63;8413808;28;20229;-66
2023/02/13 08:46:40;;;;;;;15.53;8.67;;;;;;;4.98;58.61;100041.69;8414031;28;20231;-66
2023/02/13 08:50:45;;;;;;;9.03;6.40;;;;;;;6.56;82.12;100041.31;8413509;28;20292;-67
2023/02/13 08:54:48;;;;;;;7.43;6.00;;;;;;;9.43;68.35;100047.19;8413377;28;20228;-67
2023/02/13 08:58:51;;;;;;;6.07;5.57;;;;;;;9.53;53.39;100051.41;8413719;28;20270;-68
2023/02/13 09:02:54;;;;;;;8.43;7.63;;;;;;;9.09;48.26;100043.06;8413340;28;20233;-69
2023/02/13 09:06:59;;;;;;;9.03;8.13;;;;;;;7.46;53.27;100048.47;8412934;28;20243;-69
2023/02/13 09:11:04;;;;;;;8.53;7.67;;;;;;;7.25;54.20;100044.13;8412990;28;20236;-69
2023/02/13 09:15:07;;;;;;;10.50;8.00;;;;;;;7.01;54.93;100045.81;8413083;28;20240;-69
2023/02/13 09:19:10;;;;;;;18.87;8.50;;;;;;;6.73;55.18;100039.69;8412918;28;20231;-69
2023/02/13 09:23:14;;;;;;;14.70;8.93;;;;;;;6.64;55.53;100040.53;8413356;28;20323;-69
2023/02/13 09:27:17;;;;;;;8.63;7.83;;;;;;;6.95;56.13;100047.47;8413403;28;20550;-70
2023/02/13 09:31:22;;;;;;;9.17;8.27;;;;;;;7.23;55.11;100039.00;8413252;28;20324;-70
2023/02/13 09:35:26;;;;;;;9.73;8.77;;;;;;;7.17;54.56;100020.09;8413012;28;20232;-69
2023/02/13 09:39:30;;;;;;;11.50;9.10;;;;;;;7.11;55.53;100018.34;8412441;28;20578;-70
2023/02/13 09:43:35;;;;;;;9.40;8.50;;;;;;;7.07;56.11;100050.13;8411901;28;20531;-69
2023/02/13 09:47:41;;;;;;;12.90;9.87;;;;;;;6.52;57.61;100043.00;8412245;28;20511;-69
2023/02/13 09:51:44;;;;;;;11.07;9.93;;;;;;;7.47;55.66;100045.06;8445209;28;20673;-69
2023/02/13 09:55:54;;;;;;;12.70;11.40;;;;;;;7.51;54.61;100046.78;8445243;28;20253;-69
2023/02/13 10:00:10;;;;;;;14.60;11.93;;;;;;;6.90;55.17;100050.06;8445187;28;20427;-68
2023/02/13 10:04:25;;;;;;;13.33;11.80;;;;;;;7.51;55.02;100051.06;8444881;28;20226;-68
2023/02/13 10:08:38;;;;;;;14.67;12.43;;;;;;;7.49;53.67;100048.50;8445359;28;20227;-70
2023/02/13 10:12:52;;;;;;;20.53;14.67;;;;;;;6.84;55.86;100001.97;8444940;28;20224;-69
2023/02/13 10:16:59;;;;;;;15.90;14.10;;;;;;;7.54;55.84;100045.91;8445150;28;20239;-69
2023/02/13 10:21:04;;;;;;;15.87;14.20;;;;;;;7.44;55.39;100034.72;8444699;28;20224;-70
2023/02/13 10:25:10;;;;;;;15.23;13.57;;;;;;;7.36;55.88;100044.19;8444308;28;20227;-69
2023/02/13 10:33:46;;;;;;;16.27;13.73;;;;;;;8.01;54.57;100045.06;8444085;28;20228;-70
2023/02/13 10:37:51;;;;;;;15.77;13.97;;;;;;;8.01;54.54;100034.75;8443289;28;20739;-69
2023/02/13 10:41:56;;;;;;;14.60;13.03;;;;;;;8.20;54.30;100033.84;8443752;28;20235;-69
2023/02/13 10:46:07;;;;;;;15.20;12.63;;;;;;;7.83;55.56;100033.03;8443849;28;20284;-70
2023/02/13 10:50:16;;;;;;;13.80;12.17;;;;;;;8.28;54.97;100039.03;8443207;28;20247;-70
2023/02/13 10:54:27;;;;;;;12.57;11.27;;;;;;;8.64;53.52;100033.78;8443073;28;20219;-70
2023/02/13 10:58:40;;;;;;;13.43;11.50;;;;;;;8.70;55.03;100033.75;8443259;28;20227;-70
2023/02/13 11:02:53;;;;;;;11.97;10.57;;;;;;;8.87;55.61;100037.16;8409462;28;20303;-70
2023/02/13 11:06:59;;;;;;;13.40;11.73;;;;;;;8.64;55.82;100028.63;8409972;28;20232;-69
2023/02/13 11:11:02;;;;;;;12.97;11.17;;;;;;;8.75;56.01;100019.09;8409205;28;20228;-69
2023/02/13 11:15:07;;;;;;;13.00;11.63;;;;;;;8.84;55.61;100023.38;8409835;28;20231;-69
2023/02/13 11:19:19;;;;;;;13.43;11.93;;;;;;;9.10;55.07;100020.66;8409782;28;20220;-69
2023/02/13 11:23:34;;;;;;;15.93;14.23;;;;;;;9.30;54.04;100015.38;8409755;28;20221;-69
2023/02/13 11:27:39;;;;;;;14.97;13.47;;;;;;;9.67;53.49;100017.69;8409768;28;20231;-70
2023/02/13 11:31:42;;;;;;;15.27;13.67;;;;;;;10.27;52.87;100004.19;8408807;28;20228;-70
2023/02/13 11:35:47;;;;;;;13.47;12.07;;;;;;;10.20;51.38;100012.91;8409592;28;20316;-69
2023/02/13 11:39:51;;;;;;;14.33;12.87;;;;;;;10.35;51.71;100015.38;8409123;28;20573;-70
2023/02/13 11:44:00;;;;;;;13.33;12.00;;;;;;;10.41;51.85;100002.34;8409500;28;20399;-69
2023/02/13 11:48:08;;;;;;;14.23;12.57;;;;;;;10.41;51.84;99983.34;8409814;28;20291;-69
2023/02/13 11:52:28;;;;;;;13.33;11.93;;;;;;;10.64;51.77;100016.75;8409281;28;20232;-70
2023/02/13 11:56:48;;;;;;;12.57;11.27;;;;;;;10.72;51.36;100009.78;8409445;28;20516;-69
2023/02/13 12:01:15;;;;;;;13.23;11.90;;;;;;;10.61;52.11;100004.72;8409324;28;20224;-69
2023/02/13 12:05:23;;;;;;;12.83;11.60;;;;;;;10.65;51.37;100001.19;8412022;28;20520;-69
2023/02/13 12:09:28;;;;;;;14.57;11.83;;;;;;;11.14;50.94;99997.97;8414076;28;20224;-70
2023/02/13 12:13:35;;;;;;;14.23;12.73;;;;;;;10.43;51.38;99989.38;8415628;28;20227;-69
2023/02/13 12:17:39;;;;;;;15.27;12.70;;;;;;;10.71;50.64;99969.19;8415514;28;20226;-67
2023/02/13 12:21:58;;;;;;;15.50;12.97;;;;;;;10.28;51.35;99957.59;8414623;28;20231;-67
2023/02/13 12:26:13;;;;;;;14.13;12.63;;;;;;;11.00;50.27;99973.94;8414899;28;27852;-68
2023/02/13 12:30:33;;;;;;;14.10;12.63;;;;;;;9.95;50.16;99762.94;8414779;28;20234;-69
2023/02/13 12:35:16;;;;;;;13.60;12.23;;;;;;;11.30;49.87;99954.50;8414662;28;20519;-69
2023/02/13 12:39:27;;;;;;;14.30;12.80;;;;;;;11.24;49.77;99949.41;8441758;28;20223;-68
2023/02/13 12:43:53;;;;;;;12.80;11.50;;;;;;;10.74;48.36;99912.97;8447994;28;20230;-69
2023/02/13 12:48:21;;;;;;;14.17;11.63;;;;;;;11.48;48.08;99937.78;8447709;28;20227;-69
2023/02/13 12:52:39;;;;;;;12.77;9.90;;;;;;;12.05;47.40;99925.56;8447556;28;20227;-69
2023/02/13 12:56:58;;;;;;;12.10;10.80;;;;;;;11.94;47.73;99920.59;8413780;28;20216;-68
2023/02/13 13:01:07;;;;;;;9.37;8.40;;;;;;;12.00;46.61;99915.28;8414485;28;20497;-69
2023/02/13 13:05:22;;;;;;;9.23;8.33;;;;;;;12.37;46.87;99911.94;8414177;28;20235;-69
2023/02/13 13:09:55;;;;;;;9.07;7.90;;;;;;;12.58;45.98;99915.81;8413905;28;20239;-69
2023/02/13 13:14:03;;;;;;;8.47;7.40;;;;;;;12.44;46.01;99916.13;8413308;28;20251;-68
2023/02/13 13:18:23;;;;;;;8.10;7.40;;;;;;;12.60;45.96;99908.00;8413614;28;20526;-69
2023/02/13 13:22:30;;;;;;;9.40;7.80;;;;;;;12.83;45.31;99908.34;8413319;28;20235;-69
2023/02/13 13:26:36;;;;;;;11.00;9.90;;;;;;;12.34;45.66;99901.63;8412955;28;20411;-69
2023/02/13 13:30:39;;;;;;;9.03;8.07;;;;;;;12.82;46.03;99913.59;8412836;28;20229;-69
2023/02/13 13:34:43;;;;;;;10.80;8.57;;;;;;;13.27;45.63;99903.00;8412027;28;20220;-68
2023/02/13 13:38:52;;;;;;;9.20;8.37;;;;;;;13.35;43.45;99895.88;8412552;28;20239;-69
2023/02/13 13:43:00;;;;;;;9.33;8.47;;;;;;;13.63;43.92;99896.03;8412324;28;20235;-69
2023/02/13 13:47:09;;;;;;;11.43;8.47;;;;;;;13.41;43.03;99861.03;8412328;28;20237;-69
2023/02/13 13:51:16;;;;;;;9.87;8.17;;;;;;;13.67;42.63;99891.59;8411826;28;20233;-69
2023/02/13 13:55:57;;;;;;;9.47;8.50;;;;;;;12.47;44.80;99889.19;8411634;28;20525;-68
2023/02/13 14:00:26;;;;;;;10.87;8.90;;;;;;;12.83;43.48;99886.69;8391272;28;20300;-68
2023/02/13 14:04:40;;;;;;;9.30;8.30;;;;;;;12.82;42.66;99791.38;8399652;28;20220;-68
2023/02/13 14:09:18;;;;;;;9.73;8.77;;;;;;;13.64;43.00;99881.25;8410688;28;20245;-67
2023/02/13 14:13:31;;;;;;;10.23;9.13;;;;;;;13.64;42.45;99878.66;8394603;28;20244;-68
2023/02/13 14:17:54;;;;;;;9.87;8.67;;;;;;;13.74;41.82;99876.66;8411071;28;20226;-68
2023/02/13 14:22:31;;;;;;;10.50;9.27;;;;;;;12.95;43.78;99876.00;8410766;28;20225;-69
2023/02/13 14:26:36;;;;;;;10.10;9.00;;;;;;;13.76;42.44;99872.25;8410321;28;20225;-69
2023/02/13 14:30:40;;;;;;;11.00;8.97;;;;;;;13.57;42.87;99869.28;8410852;28;20234;-69
2023/02/13 14:34:53;;;;;;;10.60;8.70;;;;;;;13.81;41.92;99873.84;8410413;28;20401;-69
2023/02/13 14:38:56;;;;;;;10.10;9.07;;;;;;;13.65;42.54;99880.34;8410746;28;20241;-69
2023/02/13 14:43:03;;;;;;;10.30;9.30;;;;;;;13.20;42.47;99872.81;8410506;28;20237;-68
2023/02/13 14:47:18;;;;;;;10.20;9.20;;;;;;;12.34;44.11;99795.09;8410725;28;20226;-68
2023/02/13 14:51:27;;;;;;;9.73;8.73;;;;;;;13.01;43.46;99873.25;8410352;28;20233;-68
2023/02/13 14:55:34;;;;;;;10.20;9.17;;;;;;;13.10;43.49;99872.19;8410133;28;20232;-69
2023/02/13 14:59:39;;;;;;;12.90;11.00;;;;;;;12.24;45.00;99871.50;8410297;28;20237;-69
2023/02/13 15:03:47;;;;;;;10.87;9.77;;;;;;;12.52;44.95;99861.38;8408954;28;20240;-68
2023/02/13 15:07:52;;;;;;;10.43;8.97;;;;;;;13.32;43.38;99849.09;8409729;28;20306;-69
2023/02/13 15:11:55;;;;;;;11.20;10.10;;;;;;;12.30;44.92;99837.63;8409845;28;20235;-67
2023/02/13 15:15:59;;;;;;;11.73;10.53;;;;;;;12.52;44.26;99822.41;8409964;28;20232;-68
2023/02/13 15:20:23;;;;;;;12.47;11.03;;;;;;;12.38;44.78;99855.66;8409538;28;20240;-68
2023/02/13 15:24:35;;;;;;;11.87;10.63;;;;;;;12.04;45.87;99845.94;8409749;28;20225;-68
2023/02/13 15:28:38;;;;;;;12.93;11.10;;;;;;;12.35;45.43;99848.75;8409651;28;20236;-68
2023/02/13 15:32:41;;;;;;;12.63;10.13;;;;;;;12.31;45.88;99854.91;8409105;28;20236;-68
2023/02/13 15:36:48;;;;;;;13.27;9.90;;;;;;;12.11;46.74;99856.19;8408974;28;20231;-68
2023/02/13 15:40:55;;;;;;;11.70;9.37;;;;;;;11.62;47.24;99807.81;8415578;28;20224;-67
2023/02/13 15:45:01;;;;;;;11.63;9.10;;;;;;;11.81;48.06;99847.22;8415655;28;20350;-67
2023/02/13 15:49:06;;;;;;;9.73;8.67;;;;;;;11.86;48.68;99848.00;8415659;28;20239;-68
2023/02/13 15:53:13;;;;;;;16.53;13.67;;;;;;;11.57;49.68;99843.34;8415404;28;20235;-68
2023/02/13 15:57:17;;;;;;;15.57;12.17;;;;;;;11.28;50.21;99816.19;8415537;28;20408;-68
2023/02/13 16:01:20;;;;;;;11.10;9.20;;;;;;;11.28;51.08;99842.13;8413116;28;20236;-68
2023/02/13 16:05:24;;;;;;;11.10;9.50;;;;;;;11.14;51.54;99844.13;8414685;28;20251;-68
2023/02/13 16:09:43;;;;;;;10.67;9.47;;;;;;;11.07;51.72;99839.91;8413153;28;20231;-68
2023/02/13 16:14:11;;;;;;;10.50;9.47;;;;;;;10.85;51.99;99832.50;8414643;28;20233;-68
2023/02/13 16:18:19;;;;;;;10.53;9.43;;;;;;;10.84;52.20;99840.28;8404939;28;20236;-68
2023/02/13 16:22:29;;;;;;;11.57;9.73;;;;;;;10.69;52.30;99833.59;8414558;28;20254;-68
2023/02/13 16:26:34;;;;;;;10.97;9.87;;;;;;;10.57;52.54;99834.63;8414473;28;20419;-68
2023/02/13 16:30:40;;;;;;;13.10;10.27;;;;;;;10.51;52.96;99851.13;8414331;28;20242;-68
2023/02/13 16:34:43;;;;;;;11.67;10.30;;;;;;;10.35;53.48;99860.81;8447596;28;20443;-68
2023/02/13 16:38:46;;;;;;;9.93;8.47;;;;;;;10.20;53.50;99853.22;8447659;28;20238;-67
2023/02/13 16:42:50;;;;;;;9.60;8.53;;;;;;;10.04;53.46;99834.44;8447367;28;20232;-67
2023/02/13 16:46:57;;;;;;;10.13;8.53;;;;;;;10.03;53.42;99856.00;8447445;28;20232;-67
2023/02/13 16:51:00;;;;;;;15.23;12.07;;;;;;;9.91;53.81;99857.03;8446787;28;20246;-67
2023/02/13 16:55:05;;;;;;;12.00;10.70;;;;;;;9.84;54.34;99864.88;8446897;28;20234;-68
2023/02/13 16:59:24;;;;;;;11.97;10.70;;;;;;;9.69;54.24;99863.28;8446799;28;20226;-68
2023/02/13 17:03:27;;;;;;;12.77;11.30;;;;;;;9.52;54.82;99837.59;8447473;28;20554;-68
2023/02/13 17:07:33;;;;;;;14.43;11.77;;;;;;;9.58;54.86;99851.34;8447148;28;20421;-68
2023/02/13 17:11:38;;;;;;;14.47;12.97;;;;;;;9.40;55.09;99872.19;8447577;28;20229;-67
2023/02/13 17:15:43;;;;;;;16.27;13.73;;;;;;;9.46;55.17;99877.34;8447485;28;20237;-67
2023/02/13 17:19:53;;;;;;;14.63;12.97;;;;;;;9.30;55.26;99874.00;8447732;28;20421;-67
2023/02/13 17:23:57;;;;;;;17.30;15.43;;;;;;;9.27;55.38;99889.56;8447293;28;20230;-67
2023/02/13 17:28:02;;;;;;;17.33;15.27;;;;;;;9.23;55.30;99887.88;8447635;28;20235;-67
2023/02/13 17:32:11;;;;;;;22.97;18.00;;;;;;;9.19;54.99;99883.59;8447470;28;20273;-67
2023/02/13 17:36:14;;;;;;;26.87;20.20;;;;;;;9.15;55.11;99897.41;8447224;28;20228;-67
2023/02/13 17:40:28;;;;;;;20.83;18.60;;;;;;;8.99;55.01;99899.25;8447077;28;20258;-67
2023/02/13 17:44:31;;;;;;;24.43;18.70;;;;;;;8.71;55.01;99850.34;8446964;28;20224;-67
2023/02/13 17:48:35;;;;;;;24.80;20.70;;;;;;;8.86;54.92;99893.31;8446921;28;20250;-67
2023/02/13 17:52:39;;;;;;;21.80;18.50;;;;;;;8.78;55.22;99889.94;8446599;28;20231;-68
2023/02/13 17:56:42;;;;;;;19.77;17.23;;;;;;;8.71;55.02;99902.00;8445958;28;20220;-68
2023/02/13 18:00:45;;;;;;;16.57;14.70;;;;;;;8.50;54.45;99864.25;8446238;28;20250;-67
2023/02/13 18:04:49;;;;;;;16.70;14.17;;;;;;;8.22;54.80;99845.44;8445633;28;20232;-68
2023/02/13 18:08:52;;;;;;;18.27;15.50;;;;;;;8.36;54.52;99891.84;8444338;28;20431;-67
2023/02/13 18:12:57;;;;;;;20.87;15.87;;;;;;;8.35;54.50;99897.88;8446337;28;20239;-67
2023/02/13 18:17:00;;;;;;;16.60;14.70;;;;;;;8.31;53.97;99888.44;8445992;28;20223;-67
2023/02/13 18:21:05;;;;;;;17.40;15.13;;;;;;;8.19;54.50;99895.34;8445891;28;20233;-68
2023/02/13 18:25:08;;;;;;;20.53;16.40;;;;;;;8.19;54.29;99903.09;8446013;28;20235;-68
2023/02/13 18:29:11;;;;;;;20.70;16.80;;;;;;;8.13;54.48;99897.97;8445865;28;20227;-68
2023/02/13 18:33:15;;;;;;;25.93;20.37;;;;;;;8.00;54.49;99893.72;8445267;28;20231;-68
2023/02/13 18:37:19;;;;;;;22.63;17.10;;;;;;;7.80;54.44;99865.38;8445524;28;20247;-68
2023/02/13 18:41:23;;;;;;;23.13;19.77;;;;;;;7.88;54.92;99886.00;8445440;28;20246;-68
2023/02/13 18:45:25;;;;;;;23.47;19.47;;;;;;;7.86;54.75;99891.16;8443764;28;20235;-67
2023/02/13 18:49:28;;;;;;;22.40;19.83;;;;;;;7.78;54.98;99888.59;8445298;28;20531;-68
2023/02/13 18:53:33;;;;;;;22.23;18.80;;;;;;;7.76;54.61;99907.53;8444919;28;20231;-67
2023/02/13 18:57:35;;;;;;;16.80;15.00;;;;;;;7.68;54.88;99897.22;8445205;28;20224;-68
2023/02/13 19:01:38;;;;;;;15.43;13.83;;;;;;;7.56;55.05;99876.63;8444382;28;20424;-68
2023/02/13 19:05:41;;;;;;;19.40;14.50;;;;;;;7.59;54.97;99898.06;8411122;28;20345;-67
2023/02/13 19:09:45;;;;;;;17.00;14.20;;;;;;;7.60;54.88;99889.50;8411067;28;20239;-68
2023/02/13 19:13:48;;;;;;;17.40;15.27;;;;;;;7.56;54.71;99899.84;8410957;28;20239;-67
2023/02/13 19:17:51;;;;;;;19.77;17.27;;;;;;;7.45;54.87;99892.09;8411235;28;20228;-67
2023/02/13 19:21:54;;;;;;;22.63;17.37;;;;;;;7.46;54.54;99890.38;8411092;28;20539;-67
2023/02/13 19:25:58;;;;;;;23.67;18.63;;;;;;;7.33;54.76;99877.50;8410702;28;20232;-68
2023/02/13 19:30:01;;;;;;;21.70;17.97;;;;;;;7.35;54.50;99892.94;8410889;28;20244;-67
2023/02/13 19:34:04;;;;;;;21.80;18.60;;;;;;;7.29;54.28;99896.41;8410718;28;20228;-68
2023/02/13 19:38:07;;;;;;;25.60;21.73;;;;;;;6.94;54.71;99886.94;8410669;28;20227;-67
2023/02/13 19:42:11;;;;;;;37.33;30.93;;;;;;;6.97;54.85;99906.69;8410658;28;20232;-67
2023/02/13 19:46:14;;;;;;;35.57;27.40;;;;;;;7.16;54.68;99904.97;8410743;28;20315;-67
2023/02/13 19:50:18;;;;;;;35.17;27.27;;;;;;;7.27;54.25;99892.94;8410419;28;20550;-67
2023/02/13 19:54:20;;;;;;;33.93;24.87;;;;;;;10.23;69.14;99910.16;8410634;28;20224;-66
2023/02/13 19:58:27;;;;;;;27.73;22.10;;;;;;;10.78;53.91;99918.97;8410538;28;20228;-67
2023/02/13 20:02:30;;;;;;;25.67;21.03;;;;;;;9.35;50.10;99913.63;8410414;28;20241;-68